sensor_id;sensor_type;location;lat;lon;timestamp;pressure;altitude;pressure_sealevel;temperature;humidity
36932;BME280;22847;42.654;23.370;2022-09-17T00:00:30;93868.09;;;23.10;63.25
36932;BME280;22847;42.654;23.370;2022-09-17T00:02:56;93873.38;;;23.05;63.58
36932;BME280;22847;42.654;23.370;2022-09-17T00:05:22;93783.28;;;21.79;66.85
36932;BME280;22847;42.654;23.370;2022-09-17T00:07:51;93821.97;;;22.43;65.08
36932;BME280;22847;42.654;23.370;2022-09-17T00:10:18;93868.63;;;22.79;64.84
36932;BME280;22847;42.654;23.370;2022-09-17T00:12:45;93827.88;;;22.74;64.26
36932;BME280;22847;42.654;23.370;2022-09-17T00:15:11;93863.06;;;23.26;63.33
36932;BME280;22847;42.654;23.370;2022-09-17T00:17:37;93805.81;;;22.73;64.23
36932;BME280;22847;42.654;23.370;2022-09-17T00:20:04;93627.41;;;21.74;63.94
36932;BME280;22847;42.654;23.370;2022-09-17T00:22:29;93819.13;;;22.90;64.38
36932;BME280;22847;42.654;23.370;2022-09-17T00:24:55;93777.94;;;22.47;65.36
36932;BME280;22847;42.654;23.370;2022-09-17T00:27:20;93827.03;;;23.18;63.51
36932;BME280;22847;42.654;23.370;2022-09-17T00:29:47;93834.66;;;23.14;62.67
36932;BME280;22847;42.654;23.370;2022-09-17T00:32:12;93765.16;;;22.44;65.31
36932;BME280;22847;42.654;23.370;2022-09-17T00:34:38;93632.16;;;22.01;63.03
36932;BME280;22847;42.654;23.370;2022-09-17T00:37:03;93776.34;;;23.08;62.87
36932;BME280;22847;42.654;23.370;2022-09-17T00:39:29;93821.44;;;23.20;63.49
36932;BME280;22847;42.654;23.370;2022-09-17T00:41:54;93842.91;;;23.46;62.28
36932;BME280;22847;42.654;23.370;2022-09-17T00:44:41;93833.84;;;23.64;61.64
36932;BME280;22847;42.654;23.370;2022-09-17T00:49:56;93847.41;;;23.63;61.71
36932;BME280;22847;42.654;23.370;2022-09-17T00:52:28;93838.69;;;23.67;61.21
36932;BME280;22847;42.654;23.370;2022-09-17T00:55:04;93808.38;;;23.51;61.24
36932;BME280;22847;42.654;23.370;2022-09-17T00:57:32;93710.41;;;23.10;60.84
36932;BME280;22847;42.654;23.370;2022-09-17T00:59:57;93851.88;;;23.95;60.50
36932;BME280;22847;42.654;23.370;2022-09-17T01:02:24;93678.13;;;22.85;60.90
36932;BME280;22847;42.654;23.370;2022-09-17T01:04:49;93887.63;;;23.33;62.34
36932;BME280;22847;42.654;23.370;2022-09-17T01:13:38;93837.81;;;22.95;63.97
36932;BME280;22847;42.654;23.370;2022-09-17T01:32:05;93794.84;;;23.20;62.54
36932;BME280;22847;42.654;23.370;2022-09-17T01:34:43;93831.69;;;23.61;61.97
36932;BME280;22847;42.654;23.370;2022-09-17T01:37:16;93765.78;;;23.13;62.30
36932;BME280;22847;42.654;23.370;2022-09-17T01:40:03;93606.91;;;22.15;62.05
36932;BME280;22847;42.654;23.370;2022-09-17T01:45:14;93756.13;;;22.90;63.35
36932;BME280;22847;42.654;23.370;2022-09-17T01:47:56;93823.50;;;23.46;63.67
36932;BME280;22847;42.654;23.370;2022-09-17T01:50:35;93610.53;;;21.80;64.04
36932;BME280;22847;42.654;23.370;2022-09-17T01:53:02;93806.63;;;23.24;63.32
36932;BME280;22847;42.654;23.370;2022-09-17T01:55:34;93776.63;;;23.28;63.54
36932;BME280;22847;42.654;23.370;2022-09-17T01:58:07;93783.66;;;23.18;63.32
36932;BME280;22847;42.654;23.370;2022-09-17T02:00:37;93622.25;;;21.96;63.95
36932;BME280;22847;42.654;23.370;2022-09-17T02:05:57;93784.06;;;22.76;63.92
36932;BME280;22847;42.654;23.370;2022-09-17T02:08:29;93782.38;;;22.87;64.62
36932;BME280;22847;42.654;23.370;2022-09-17T02:11:07;93568.38;;;21.39;65.56
36932;BME280;22847;42.654;23.370;2022-09-17T02:16:16;93758.41;;;22.53;65.48
36932;BME280;22847;42.654;23.370;2022-09-17T02:18:52;93702.19;;;22.61;64.80
36932;BME280;22847;42.654;23.370;2022-09-17T02:21:30;93675.94;;;22.98;63.81
36932;BME280;22847;42.654;23.370;2022-09-17T02:24:22;93526.34;;;22.26;62.99
36932;BME280;22847;42.654;23.370;2022-09-17T02:27:23;93670.09;;;22.96;63.24
36932;BME280;22847;42.654;23.370;2022-09-17T02:29:54;93662.66;;;22.15;66.11
36932;BME280;22847;42.654;23.370;2022-09-17T02:32:19;93553.78;;;21.98;64.94
36932;BME280;22847;42.654;23.370;2022-09-17T02:34:45;93629.91;;;22.76;63.98
36932;BME280;22847;42.654;23.370;2022-09-17T02:37:10;93615.97;;;22.36;65.29
36932;BME280;22847;42.654;23.370;2022-09-17T02:39:36;93566.09;;;22.21;64.15
36932;BME280;22847;42.654;23.370;2022-09-17T02:55:26;93483.97;;;21.64;62.97
36932;BME280;22847;42.654;23.370;2022-09-17T02:58:07;93729.47;;;23.24;62.24
36932;BME280;22847;42.654;23.370;2022-09-17T03:00:37;93708.94;;;23.19;62.89
36932;BME280;22847;42.654;23.370;2022-09-17T03:03:20;93557.78;;;22.34;62.47
36932;BME280;22847;42.654;23.370;2022-09-17T03:05:49;93686.81;;;23.35;61.75
36932;BME280;22847;42.654;23.370;2022-09-17T03:08:16;93686.44;;;23.27;61.97
36932;BME280;22847;42.654;23.370;2022-09-17T03:10:45;93679.38;;;23.54;61.17
36932;BME280;22847;42.654;23.370;2022-09-17T03:13:14;93554.03;;;22.68;61.60
36932;BME280;22847;42.654;23.370;2022-09-17T03:15:39;93715.25;;;23.51;61.29
36932;BME280;22847;42.654;23.370;2022-09-17T03:18:04;93671.53;;;23.26;61.93
36932;BME280;22847;42.654;23.370;2022-09-17T03:20:31;93687.91;;;23.18;62.05
36932;BME280;22847;42.654;23.370;2022-09-17T03:22:56;93682.84;;;23.38;61.12
36932;BME280;22847;42.654;23.370;2022-09-17T03:25:22;93598.03;;;22.26;63.01
36932;BME280;22847;42.654;23.370;2022-09-17T03:27:47;93533.41;;;21.87;63.73
36932;BME280;22847;42.654;23.370;2022-09-17T03:30:13;93690.44;;;23.07;62.92
36932;BME280;22847;42.654;23.370;2022-09-17T03:32:38;93512.91;;;22.33;61.41
36932;BME280;22847;42.654;23.370;2022-09-17T03:35:04;93444.09;;;21.93;60.91
36932;BME280;22847;42.654;23.370;2022-09-17T03:37:29;93561.06;;;22.58;61.00
36932;BME280;22847;42.654;23.370;2022-09-17T03:39:55;93644.16;;;22.87;61.89
36932;BME280;22847;42.654;23.370;2022-09-17T03:42:20;93452.06;;;21.93;61.33
36932;BME280;22847;42.654;23.370;2022-09-17T03:44:46;93669.47;;;23.49;60.73
36932;BME280;22847;42.654;23.370;2022-09-17T03:47:11;93661.03;;;23.36;61.12
36932;BME280;22847;42.654;23.370;2022-09-17T03:49:37;93198.53;;;20.70;60.92
36932;BME280;22847;42.654;23.370;2022-09-17T03:52:02;93661.50;;;23.33;61.28
36932;BME280;22847;42.654;23.370;2022-09-17T03:54:28;93573.78;;;22.94;61.59
36932;BME280;22847;42.654;23.370;2022-09-17T03:56:53;93597.59;;;23.06;61.76
36932;BME280;22847;42.654;23.370;2022-09-17T03:59:18;93440.31;;;21.39;63.42
36932;BME280;22847;42.654;23.370;2022-09-17T04:01:44;93494.41;;;21.71;63.71
36932;BME280;22847;42.654;23.370;2022-09-17T04:04:09;93660.78;;;22.99;62.77
36932;BME280;22847;42.654;23.370;2022-09-17T04:06:35;93617.53;;;22.32;63.90
36932;BME280;22847;42.654;23.370;2022-09-17T04:09:00;93657.53;;;22.42;64.17
36932;BME280;22847;42.654;23.370;2022-09-17T04:11:28;93673.38;;;22.37;65.95
36932;BME280;22847;42.654;23.370;2022-09-17T04:13:54;93505.31;;;21.13;65.94
36932;BME280;22847;42.654;23.370;2022-09-17T04:16:19;93613.00;;;21.99;65.21
36932;BME280;22847;42.654;23.370;2022-09-17T04:18:45;93487.09;;;21.61;63.50
36932;BME280;22847;42.654;23.370;2022-09-17T04:21:10;93711.41;;;22.87;63.05
36932;BME280;22847;42.654;23.370;2022-09-17T04:23:36;93703.91;;;22.67;64.16
36932;BME280;22847;42.654;23.370;2022-09-17T04:26:01;93769.41;;;23.07;62.84
36932;BME280;22847;42.654;23.370;2022-09-17T04:28:27;93770.78;;;22.93;63.17
36932;BME280;22847;42.654;23.370;2022-09-17T04:30:52;93739.78;;;23.37;61.69
36932;BME280;22847;42.654;23.370;2022-09-17T04:33:18;93769.31;;;23.19;62.11
36932;BME280;22847;42.654;23.370;2022-09-17T04:35:44;93725.75;;;22.86;63.03
36932;BME280;22847;42.654;23.370;2022-09-17T04:38:10;93747.03;;;22.86;63.11
36932;BME280;22847;42.654;23.370;2022-09-17T04:40:38;93774.72;;;22.74;64.49
36932;BME280;22847;42.654;23.370;2022-09-17T04:43:05;93780.38;;;22.94;63.45
36932;BME280;22847;42.654;23.370;2022-09-17T04:45:31;93786.81;;;22.98;63.57
36932;BME280;22847;42.654;23.370;2022-09-17T04:47:57;93775.50;;;22.74;64.16
36932;BME280;22847;42.654;23.370;2022-09-17T04:50:23;93817.50;;;22.89;64.14
36932;BME280;22847;42.654;23.370;2022-09-17T04:52:48;93688.28;;;22.38;63.57
36932;BME280;22847;42.654;23.370;2022-09-17T04:55:14;93825.56;;;22.65;64.97
36932;BME280;22847;42.654;23.370;2022-09-17T04:57:51;93853.75;;;22.78;64.40
36932;BME280;22847;42.654;23.370;2022-09-17T05:00:18;93656.63;;;21.91;63.92
36932;BME280;22847;42.654;23.370;2022-09-17T05:02:49;93832.56;;;22.83;64.48
36932;BME280;22847;42.654;23.370;2022-09-17T05:05:15;93761.13;;;22.87;63.30
36932;BME280;22847;42.654;23.370;2022-09-17T05:07:41;93796.53;;;22.92;64.23
36932;BME280;22847;42.654;23.370;2022-09-17T05:10:08;93850.16;;;23.18;64.32
36932;BME280;22847;42.654;23.370;2022-09-17T05:12:34;93826.44;;;23.33;63.59
36932;BME280;22847;42.654;23.370;2022-09-17T05:15:00;93824.91;;;23.20;63.84
36932;BME280;22847;42.654;23.370;2022-09-17T05:17:25;93846.78;;;23.05;64.11
36932;BME280;22847;42.654;23.370;2022-09-17T05:19:51;93818.94;;;22.80;64.63
36932;BME280;22847;42.654;23.370;2022-09-17T05:22:18;93818.16;;;22.67;65.60
36932;BME280;22847;42.654;23.370;2022-09-17T05:24:43;93766.84;;;22.50;65.79
36932;BME280;22847;42.654;23.370;2022-09-17T05:27:09;93741.16;;;22.39;65.68
36932;BME280;22847;42.654;23.370;2022-09-17T05:29:35;93770.19;;;22.74;65.25
36932;BME280;22847;42.654;23.370;2022-09-17T05:32:02;93801.09;;;22.92;64.67
36932;BME280;22847;42.654;23.370;2022-09-17T05:34:27;93749.56;;;22.64;65.14
36932;BME280;22847;42.654;23.370;2022-09-17T05:36:53;93823.84;;;22.03;67.80
36932;BME280;22847;42.654;23.370;2022-09-17T05:39:18;93793.75;;;22.25;66.81
36932;BME280;22847;42.654;23.370;2022-09-17T05:41:47;93685.00;;;21.74;65.80
36932;BME280;22847;42.654;23.370;2022-09-17T05:44:12;93815.59;;;22.56;65.79
36932;BME280;22847;42.654;23.370;2022-09-17T05:46:37;93811.13;;;22.90;64.72
36932;BME280;22847;42.654;23.370;2022-09-17T05:49:03;93804.69;;;22.57;65.80
36932;BME280;22847;42.654;23.370;2022-09-17T05:51:29;93619.84;;;21.26;65.86
36932;BME280;22847;42.654;23.370;2022-09-17T05:53:54;93770.19;;;22.29;65.47
36932;BME280;22847;42.654;23.370;2022-09-17T05:56:20;93661.44;;;22.06;63.93
36932;BME280;22847;42.654;23.370;2022-09-17T05:58:46;93609.72;;;21.23;65.91
36932;BME280;22847;42.654;23.370;2022-09-17T06:01:12;93822.66;;;22.50;65.99
36932;BME280;22847;42.654;23.370;2022-09-17T06:03:41;93823.97;;;22.64;65.34
36932;BME280;22847;42.654;23.370;2022-09-17T06:06:06;93638.19;;;21.85;64.91
36932;BME280;22847;42.654;23.370;2022-09-17T06:08:32;93806.22;;;23.15;63.64
36932;BME280;22847;42.654;23.370;2022-09-17T06:11:05;93808.06;;;22.98;64.01
36932;BME280;22847;42.654;23.370;2022-09-17T06:13:31;93815.75;;;22.09;67.59
36932;BME280;22847;42.654;23.370;2022-09-17T06:15:57;93840.81;;;22.42;66.02
36932;BME280;22847;42.654;23.370;2022-09-17T06:18:23;93820.44;;;22.47;66.24
36932;BME280;22847;42.654;23.370;2022-09-17T06:21:06;93827.91;;;22.34;66.55
36932;BME280;22847;42.654;23.370;2022-09-17T06:23:33;93790.59;;;21.89;66.47
36932;BME280;22847;42.654;23.370;2022-09-17T06:26:03;93616.50;;;20.56;66.96
36932;BME280;22847;42.654;23.370;2022-09-17T06:28:28;93889.47;;;22.42;66.26
36932;BME280;22847;42.654;23.370;2022-09-17T06:30:58;93896.75;;;22.63;65.73
36932;BME280;22847;42.654;23.370;2022-09-17T06:33:23;93656.66;;;21.00;66.27
36932;BME280;22847;42.654;23.370;2022-09-17T06:35:57;93840.00;;;21.90;68.06
36932;BME280;22847;42.654;23.370;2022-09-17T06:38:25;93889.69;;;22.69;66.88
36932;BME280;22847;42.654;23.370;2022-09-17T06:40:51;93798.25;;;21.97;66.63
36932;BME280;22847;42.654;23.370;2022-09-17T06:43:18;93897.97;;;22.84;66.11
36932;BME280;22847;42.654;23.370;2022-09-17T06:45:43;93903.66;;;23.04;66.46
36932;BME280;22847;42.654;23.370;2022-09-17T06:48:09;93884.88;;;23.11;65.56
36932;BME280;22847;42.654;23.370;2022-09-17T06:53:22;93844.97;;;23.11;65.75
36932;BME280;22847;42.654;23.370;2022-09-17T06:55:48;93722.25;;;22.52;64.94
36932;BME280;22847;42.654;23.370;2022-09-17T06:58:14;93894.34;;;23.52;65.08
36932;BME280;22847;42.654;23.370;2022-09-17T07:00:40;93852.41;;;23.42;64.69
36932;BME280;22847;42.654;23.370;2022-09-17T07:03:05;93834.38;;;23.44;63.65
36932;BME280;22847;42.654;23.370;2022-09-17T07:05:31;93877.41;;;23.75;63.64
36932;BME280;22847;42.654;23.370;2022-09-17T07:08:00;93835.09;;;23.78;63.78
36932;BME280;22847;42.654;23.370;2022-09-17T07:10:27;93615.81;;;22.09;64.68
36932;BME280;22847;42.654;23.370;2022-09-17T07:12:52;93615.50;;;22.22;64.66
36932;BME280;22847;42.654;23.370;2022-09-17T07:15:18;93779.41;;;23.00;65.66
36932;BME280;22847;42.654;23.370;2022-09-17T07:17:44;93787.81;;;22.63;67.79
36932;BME280;22847;42.654;23.370;2022-09-17T07:20:11;93767.13;;;23.32;65.25
36932;BME280;22847;42.654;23.370;2022-09-17T07:22:37;93766.72;;;24.22;62.57
36932;BME280;22847;42.654;23.370;2022-09-17T07:25:02;93651.97;;;23.80;60.96
36932;BME280;22847;42.654;23.370;2022-09-17T07:27:29;93765.22;;;24.58;61.12
36932;BME280;22847;42.654;23.370;2022-09-17T07:29:55;93776.19;;;24.62;61.00
36932;BME280;22847;42.654;23.370;2022-09-17T07:32:21;93572.63;;;23.07;61.07
36932;BME280;22847;42.654;23.370;2022-09-17T07:34:47;93758.44;;;24.77;59.93
36932;BME280;22847;42.654;23.370;2022-09-17T07:37:14;93742.88;;;24.37;60.60
36932;BME280;22847;42.654;23.370;2022-09-17T07:39:40;93759.38;;;23.69;63.58
36932;BME280;22847;42.654;23.370;2022-09-17T07:42:06;93785.72;;;24.84;60.64
36932;BME280;22847;42.654;23.370;2022-09-17T07:44:32;93748.88;;;24.81;59.94
36932;BME280;22847;42.654;23.370;2022-09-17T07:46:57;93779.91;;;24.61;60.73
36932;BME280;22847;42.654;23.370;2022-09-17T07:49:22;93763.66;;;24.89;59.55
36932;BME280;22847;42.654;23.370;2022-09-17T07:51:48;93745.94;;;24.24;61.00
36932;BME280;22847;42.654;23.370;2022-09-17T07:54:13;93588.81;;;22.84;62.30
36932;BME280;22847;42.654;23.370;2022-09-17T07:56:39;93772.75;;;23.74;63.13
36932;BME280;22847;42.654;23.370;2022-09-17T07:59:04;93780.00;;;23.40;64.44
36932;BME280;22847;42.654;23.370;2022-09-17T08:01:33;93754.06;;;23.47;64.07
36932;BME280;22847;42.654;23.370;2022-09-17T08:03:58;93758.69;;;24.00;62.48
36932;BME280;22847;42.654;23.370;2022-09-17T08:06:25;93790.19;;;24.25;62.11
36932;BME280;22847;42.654;23.370;2022-09-17T08:08:53;93623.66;;;23.47;61.22
36932;BME280;22847;42.654;23.370;2022-09-17T08:11:21;93762.88;;;24.13;61.77
36932;BME280;22847;42.654;23.370;2022-09-17T08:13:48;93604.34;;;23.13;62.18
36932;BME280;22847;42.654;23.370;2022-09-17T08:16:14;93614.63;;;23.27;61.50
36932;BME280;22847;42.654;23.370;2022-09-17T08:18:41;93572.91;;;23.10;61.15
36932;BME280;22847;42.654;23.370;2022-09-17T08:21:10;93745.72;;;24.26;61.18
36932;BME280;22847;42.654;23.370;2022-09-17T08:23:38;93749.16;;;24.05;61.82
36932;BME280;22847;42.654;23.370;2022-09-17T08:26:04;93742.47;;;24.51;60.38
36932;BME280;22847;42.654;23.370;2022-09-17T08:28:33;93755.25;;;24.75;59.35
36932;BME280;22847;42.654;23.370;2022-09-17T08:31:04;93735.47;;;24.98;58.68
36932;BME280;22847;42.654;23.370;2022-09-17T08:33:34;93730.81;;;24.57;59.44
36932;BME280;22847;42.654;23.370;2022-09-17T08:36:00;93727.16;;;24.68;58.67
36932;BME280;22847;42.654;23.370;2022-09-17T08:38:31;93743.47;;;24.71;58.93
36932;BME280;22847;42.654;23.370;2022-09-17T08:43:27;93715.69;;;24.94;57.65
36932;BME280;22847;42.654;23.370;2022-09-17T08:45:56;93531.03;;;22.19;62.21
36932;BME280;22847;42.654;23.370;2022-09-17T08:48:24;93565.53;;;22.74;61.64
36932;BME280;22847;42.654;23.370;2022-09-17T08:50:52;93728.34;;;24.23;59.72
36932;BME280;22847;42.654;23.370;2022-09-17T08:53:29;93559.69;;;23.64;58.55
36932;BME280;22847;42.654;23.370;2022-09-17T09:03:59;93698.03;;;24.29;58.67
36932;BME280;22847;42.654;23.370;2022-09-17T09:06:33;93714.44;;;24.43;58.67
36932;BME280;22847;42.654;23.370;2022-09-17T09:11:29;93755.25;;;24.49;58.87
36932;BME280;22847;42.654;23.370;2022-09-17T09:14:22;93751.53;;;24.50;58.72
36932;BME280;22847;42.654;23.370;2022-09-17T09:16:50;93703.03;;;23.50;61.27
36932;BME280;22847;42.654;23.370;2022-09-17T09:19:25;93728.25;;;23.91;60.14
36932;BME280;22847;42.654;23.370;2022-09-17T09:27:16;93780.66;;;24.29;59.47
36932;BME280;22847;42.654;23.370;2022-09-17T09:30:00;93595.19;;;23.04;59.77
36932;BME280;22847;42.654;23.370;2022-09-17T09:35:02;93801.66;;;24.04;60.77
36932;BME280;22847;42.654;23.370;2022-09-17T09:37:38;93793.03;;;23.97;60.93
36932;BME280;22847;42.654;23.370;2022-09-17T09:40:25;93808.47;;;23.56;62.96
36932;BME280;22847;42.654;23.370;2022-09-17T09:42:54;93805.94;;;23.67;62.02
36932;BME280;22847;42.654;23.370;2022-09-17T09:48:06;93817.34;;;23.62;63.72
36932;BME280;22847;42.654;23.370;2022-09-17T09:50:46;93813.13;;;23.66;63.23
36932;BME280;22847;42.654;23.370;2022-09-17T09:58:51;93778.53;;;23.66;62.92
36932;BME280;22847;42.654;23.370;2022-09-17T10:01:18;93838.66;;;24.06;63.03
36932;BME280;22847;42.654;23.370;2022-09-17T10:03:48;93833.41;;;23.89;63.94
36932;BME280;22847;42.654;23.370;2022-09-17T10:06:16;93792.50;;;23.78;64.90
36932;BME280;22847;42.654;23.370;2022-09-17T10:11:30;93744.13;;;22.43;71.74
36932;BME280;22847;42.654;23.370;2022-09-17T10:14:39;93747.09;;;22.30;72.10
36932;BME280;22847;42.654;23.370;2022-09-17T10:17:23;93742.06;;;22.61;70.42
36932;BME280;22847;42.654;23.370;2022-09-17T10:22:37;93731.06;;;23.03;68.63
36932;BME280;22847;42.654;23.370;2022-09-17T10:25:06;93580.09;;;22.16;68.78
36932;BME280;22847;42.654;23.370;2022-09-17T10:27:44;93700.44;;;22.84;69.33
36932;BME280;22847;42.654;23.370;2022-09-17T10:30:17;93704.31;;;22.93;68.96
36932;BME280;22847;42.654;23.370;2022-09-17T10:32:43;93672.56;;;22.36;69.81
36932;BME280;22847;42.654;23.370;2022-09-17T10:37:45;93697.06;;;23.05;67.31
36932;BME280;22847;42.654;23.370;2022-09-17T10:42:43;93701.44;;;22.78;68.51
36932;BME280;22847;42.654;23.370;2022-09-17T10:45:22;93699.44;;;22.06;74.02
36932;BME280;22847;42.654;23.370;2022-09-17T10:47:49;93498.00;;;20.40;76.68
36932;BME280;22847;42.654;23.370;2022-09-17T10:50:17;93543.66;;;21.22;74.04
36932;BME280;22847;42.654;23.370;2022-09-17T10:52:51;93489.78;;;21.33;72.17
36932;BME280;22847;42.654;23.370;2022-09-17T11:03:09;93497.34;;;20.84;75.27
36932;BME280;22847;42.654;23.370;2022-09-17T11:14:36;93675.97;;;23.20;68.59
36932;BME280;22847;42.654;23.370;2022-09-17T11:30:54;93581.53;;;22.96;66.47
36932;BME280;22847;42.654;23.370;2022-09-17T11:33:32;93723.41;;;23.88;66.79
36932;BME280;22847;42.654;23.370;2022-09-17T11:36:10;93681.28;;;23.80;67.20
36932;BME280;22847;42.654;23.370;2022-09-17T11:38:42;93687.78;;;23.46;68.04
36932;BME280;22847;42.654;23.370;2022-09-17T11:41:34;93703.28;;;23.32;69.35
36932;BME280;22847;42.654;23.370;2022-09-17T11:46:46;93699.47;;;23.28;69.29
36932;BME280;22847;42.654;23.370;2022-09-17T11:49:23;93711.63;;;23.58;68.59
36932;BME280;22847;42.654;23.370;2022-09-17T11:51:56;93667.41;;;23.56;67.86
36932;BME280;22847;42.654;23.370;2022-09-17T11:54:38;93470.75;;;22.80;66.42
36932;BME280;22847;42.654;23.370;2022-09-17T12:02:22;93663.31;;;23.71;67.17
36932;BME280;22847;42.654;23.370;2022-09-17T12:07:47;93644.84;;;23.21;66.59
36932;BME280;22847;42.654;23.370;2022-09-17T12:12:55;93517.78;;;23.01;65.40
36932;BME280;22847;42.654;23.370;2022-09-17T12:15:25;93676.47;;;24.04;64.95
36932;BME280;22847;42.654;23.370;2022-09-17T12:20:37;93665.63;;;23.62;66.38
36932;BME280;22847;42.654;23.370;2022-09-17T12:23:10;93669.44;;;23.71;65.63
36932;BME280;22847;42.654;23.370;2022-09-17T12:25:48;93505.31;;;22.41;66.96
36932;BME280;22847;42.654;23.370;2022-09-17T12:28:35;93654.88;;;23.79;65.62
36932;BME280;22847;42.654;23.370;2022-09-17T12:31:30;93498.97;;;22.64;66.53
36932;BME280;22847;42.654;23.370;2022-09-17T12:45:26;93512.63;;;23.16;64.25
36932;BME280;22847;42.654;23.370;2022-09-17T12:50:36;93627.09;;;23.70;66.56
36932;BME280;22847;42.654;23.370;2022-09-17T12:53:28;93632.53;;;23.80;66.69
36932;BME280;22847;42.654;23.370;2022-09-17T13:16:25;93500.25;;;22.61;69.22
36932;BME280;22847;42.654;23.370;2022-09-17T13:21:52;93605.31;;;23.73;66.84
36932;BME280;22847;42.654;23.370;2022-09-17T13:24:23;93610.31;;;23.96;64.69
36932;BME280;22847;42.654;23.370;2022-09-17T13:26:51;93541.56;;;22.69;67.40
36932;BME280;22847;42.654;23.370;2022-09-17T13:37:56;93381.66;;;22.29;66.93
36932;BME280;22847;42.654;23.370;2022-09-17T13:40:28;93568.88;;;23.51;65.26
36932;BME280;22847;42.654;23.370;2022-09-17T13:42:55;93238.63;;;21.12;66.82
36932;BME280;22847;42.654;23.370;2022-09-17T13:45:22;93501.91;;;22.46;68.12
36932;BME280;22847;42.654;23.370;2022-09-17T13:47:54;93551.88;;;23.31;66.25
36932;BME280;22847;42.654;23.370;2022-09-17T13:50:33;93550.91;;;22.72;67.01
36932;BME280;22847;42.654;23.370;2022-09-17T13:55:49;93562.16;;;22.79;67.93
36932;BME280;22847;42.654;23.370;2022-09-17T14:13:51;93490.72;;;23.58;63.78
36932;BME280;22847;42.654;23.370;2022-09-17T14:32:25;93510.66;;;23.87;65.55
36932;BME280;22847;42.654;23.370;2022-09-17T14:34:57;93325.59;;;22.79;65.44
36932;BME280;22847;42.654;23.370;2022-09-17T14:37:24;93323.97;;;22.02;66.78
36932;BME280;22847;42.654;23.370;2022-09-17T14:39:50;93471.75;;;23.22;67.65
36932;BME280;22847;42.654;23.370;2022-09-17T14:42:26;93475.75;;;23.51;65.83
36932;BME280;22847;42.654;23.370;2022-09-17T14:45:01;93458.91;;;22.92;67.39
36932;BME280;22847;42.654;23.370;2022-09-17T14:47:28;93424.19;;;22.34;70.41
36932;BME280;22847;42.654;23.370;2022-09-17T14:49:54;93307.19;;;21.97;68.23
36932;BME280;22847;42.654;23.370;2022-09-17T14:52:30;93476.59;;;23.03;67.71
36932;BME280;22847;42.654;23.370;2022-09-17T14:57:34;93417.41;;;22.86;67.75
36932;BME280;22847;42.654;23.370;2022-09-17T15:00:02;93369.50;;;22.59;68.77
36932;BME280;22847;42.654;23.370;2022-09-17T15:02:39;93431.16;;;22.18;70.12
36932;BME280;22847;42.654;23.370;2022-09-17T15:07:41;93463.91;;;22.45;71.00
36932;BME280;22847;42.654;23.370;2022-09-17T15:10:21;93413.13;;;22.20;70.92
36932;BME280;22847;42.654;23.370;2022-09-17T15:12:48;93440.91;;;22.34;71.11
36932;BME280;22847;42.654;23.370;2022-09-17T15:15:19;93439.81;;;22.95;68.83
36932;BME280;22847;42.654;23.370;2022-09-17T15:17:47;93442.94;;;22.87;66.90
36932;BME280;22847;42.654;23.370;2022-09-17T15:20:17;93303.84;;;22.28;67.49
36932;BME280;22847;42.654;23.370;2022-09-17T15:22:50;93249.50;;;22.14;65.30
36932;BME280;22847;42.654;23.370;2022-09-17T15:25:19;93417.63;;;23.38;65.19
36932;BME280;22847;42.654;23.370;2022-09-17T15:27:48;93391.63;;;22.87;69.22
36932;BME280;22847;42.654;23.370;2022-09-17T15:30:23;93421.34;;;23.10;68.31
36932;BME280;22847;42.654;23.370;2022-09-17T15:32:54;93383.91;;;23.44;65.52
36932;BME280;22847;42.654;23.370;2022-09-17T15:35:32;93412.75;;;23.30;66.82
36932;BME280;22847;42.654;23.370;2022-09-17T15:38:18;93273.97;;;22.69;65.10
36932;BME280;22847;42.654;23.370;2022-09-17T15:40:44;93226.41;;;22.41;68.01
36932;BME280;22847;42.654;23.370;2022-09-17T15:43:21;93428.66;;;23.84;67.35
36932;BME280;22847;42.654;23.370;2022-09-17T15:45:49;93401.78;;;23.85;66.82
36932;BME280;22847;42.654;23.370;2022-09-17T15:50:51;93406.16;;;23.38;71.13
36932;BME280;22847;42.654;23.370;2022-09-17T15:53:22;93406.03;;;23.49;70.99
36932;BME280;22847;42.654;23.370;2022-09-17T15:56:02;93432.44;;;23.93;68.45
36932;BME280;22847;42.654;23.370;2022-09-17T15:58:31;93417.78;;;23.27;64.86
36932;BME280;22847;42.654;23.370;2022-09-17T16:08:48;93382.72;;;23.03;68.86
36932;BME280;22847;42.654;23.370;2022-09-17T16:11:15;93390.09;;;22.69;69.56
36932;BME280;22847;42.654;23.370;2022-09-17T16:13:40;93383.66;;;22.43;69.96
36932;BME280;22847;42.654;23.370;2022-09-17T16:16:52;93325.38;;;22.32;69.76
36932;BME280;22847;42.654;23.370;2022-09-17T16:18:53;93378.66;;;23.22;67.03
36932;BME280;22847;42.654;23.370;2022-09-17T16:21:18;93204.50;;;22.29;65.93
36932;BME280;22847;42.654;23.370;2022-09-17T16:23:44;93395.28;;;23.39;66.41
36932;BME280;22847;42.654;23.370;2022-09-17T16:26:19;93263.56;;;21.71;67.81
36932;BME280;22847;42.654;23.370;2022-09-17T16:28:48;93398.91;;;23.01;67.56
36932;BME280;22847;42.654;23.370;2022-09-17T16:31:14;93174.22;;;20.94;69.37
36932;BME280;22847;42.654;23.370;2022-09-17T16:33:40;93371.53;;;22.74;68.64
36932;BME280;22847;42.654;23.370;2022-09-17T16:36:06;93340.66;;;22.19;68.33
36932;BME280;22847;42.654;23.370;2022-09-17T16:38:32;93360.81;;;22.20;70.45
36932;BME280;22847;42.654;23.370;2022-09-17T16:40:57;93333.84;;;22.07;63.54
36932;BME280;22847;42.654;23.370;2022-09-17T16:43:24;93311.63;;;22.13;64.88
36932;BME280;22847;42.654;23.370;2022-09-17T16:46:05;93373.97;;;22.32;67.21
36932;BME280;22847;42.654;23.370;2022-09-17T16:48:31;93290.91;;;21.00;71.75
36932;BME280;22847;42.654;23.370;2022-09-17T16:50:57;93289.69;;;20.29;74.83
36932;BME280;22847;42.654;23.370;2022-09-17T16:53:23;93262.69;;;19.87;76.14